Time;durP1;ratioP1;P1;durP2;ratioP2;P2;SDS_P1;SDS_P2;PMS_P1;PMS_P2;Temp;Humidity;BMP_temperature;BMP_pressure;BME280_temperature;BME280_humidity;BME280_pressure;Samples;Min_cycle;Max_cycle;Signal;HPM_P1;HPM_P2
2023/12/29 00:02:21;;;;;;;12.27;2.40;;;9.50;99.90;;;;;;4988305;28;20035;-84
2023/12/29 00:04:47;;;;;;;8.95;2.60;;;9.60;99.90;;;;;;4959276;28;20045;-84
2023/12/29 00:07:13;;;;;;;11.00;2.40;;;9.60;99.90;;;;;;4975090;28;20053;-83
2023/12/29 00:09:40;;;;;;;11.07;2.47;;;9.80;99.90;;;;;;4984276;28;20038;-84
2023/12/29 00:12:07;;;;;;;13.73;2.95;;;9.70;99.90;;;;;;4959114;28;20120;-84
2023/12/29 00:14:33;;;;;;;13.05;3.10;;;9.10;99.90;;;;;;5000307;28;20088;-85
2023/12/29 00:17:00;;;;;;;9.52;2.50;;;9.80;99.90;;;;;;4972088;28;20124;-84
2023/12/29 00:19:26;;;;;;;8.57;2.53;;;9.80;99.90;;;;;;4991732;28;20038;-84
2023/12/29 00:21:52;;;;;;;9.00;2.40;;;9.70;99.90;;;;;;4957383;28;20040;-84
2023/12/29 00:24:18;;;;;;;11.38;3.10;;;9.90;99.90;;;;;;4977599;28;20042;-84
2023/12/29 00:26:43;;;;;;;12.98;3.83;;;9.80;99.90;;;;;;4989949;28;20038;-85
2023/12/29 00:29:09;;;;;;;8.48;2.28;;;9.70;99.90;;;;;;4989431;28;20103;-84
2023/12/29 00:31:35;;;;;;;10.55;2.97;;;9.80;99.90;;;;;;4990769;28;20128;-84
2023/12/29 00:34:00;;;;;;;11.10;2.45;;;9.70;99.90;;;;;;4973291;28;20054;-84
2023/12/29 00:36:26;;;;;;;10.27;2.50;;;9.80;99.90;;;;;;4959318;28;20100;-84
2023/12/29 00:38:52;;;;;;;13.07;3.38;;;9.90;99.90;;;;;;4991750;28;20046;-83
2023/12/29 00:41:17;;;;;;;11.30;2.90;;;9.90;99.90;;;;;;4973433;28;20402;-84
2023/12/29 00:43:43;;;;;;;12.10;2.67;;;9.80;99.90;;;;;;4957699;28;20108;-84
2023/12/29 00:46:09;;;;;;;7.63;2.10;;;9.90;99.90;;;;;;4971856;28;20514;-84
2023/12/29 00:48:35;;;;;;;10.15;2.50;;;9.90;99.90;;;;;;4955715;28;20038;-84
2023/12/29 00:51:02;;;;;;;11.90;2.78;;;9.90;99.90;;;;;;4971721;28;20080;-84
2023/12/29 00:53:29;;;;;;;8.10;2.30;;;9.90;99.90;;;;;;4983812;28;20092;-84
2023/12/29 00:55:55;;;;;;;12.77;2.50;;;9.80;99.90;;;;;;4991259;28;20041;-84
2023/12/29 00:58:20;;;;;;;9.60;2.05;;;9.80;99.90;;;;;;4989143;28;20034;-84
2023/12/29 01:00:46;;;;;;;10.57;3.13;;;9.80;99.90;;;;;;5004255;28;20034;-84
2023/12/29 01:03:12;;;;;;;11.05;2.75;;;9.60;99.90;;;;;;4969726;28;20041;-84
2023/12/29 01:05:37;;;;;;;8.80;2.30;;;9.70;99.90;;;;;;4973814;28;20133;-84
2023/12/29 01:08:03;;;;;;;10.88;2.33;;;9.60;99.90;;;;;;4990461;28;20069;-84
2023/12/29 01:10:29;;;;;;;10.63;2.60;;;9.70;99.90;;;;;;4978993;28;20046;-84
2023/12/29 01:12:55;;;;;;;7.95;2.17;;;9.80;99.90;;;;;;4992899;28;20537;-84
2023/12/29 01:15:20;;;;;;;10.10;2.40;;;9.60;99.90;;;;;;4994173;28;20447;-85
2023/12/29 01:17:46;;;;;;;8.85;2.30;;;9.60;99.90;;;;;;4977930;28;20069;-84
2023/12/29 01:20:12;;;;;;;9.18;2.28;;;9.70;99.90;;;;;;4978549;28;20042;-84
2023/12/29 01:22:38;;;;;;;8.40;2.20;;;9.70;99.90;;;;;;4994475;28;20429;-84
2023/12/29 01:25:04;;;;;;;8.20;2.00;;;9.70;99.90;;;;;;4969572;28;20049;-84
2023/12/29 01:27:30;;;;;;;8.77;2.42;;;9.60;99.90;;;;;;4974102;28;20046;-84
2023/12/29 01:29:55;;;;;;;11.23;2.70;;;9.50;99.90;;;;;;4975639;28;20049;-84
2023/12/29 01:32:22;;;;;;;11.38;2.50;;;9.50;99.90;;;;;;4976215;28;20629;-84
2023/12/29 01:34:48;;;;;;;10.43;2.58;;;9.40;99.90;;;;;;4970399;28;20054;-84
2023/12/29 01:37:13;;;;;;;11.15;2.60;;;9.50;99.90;;;;;;5008240;28;20053;-84
2023/12/29 01:39:40;;;;;;;13.00;2.92;;;9.40;99.90;;;;;;4994649;28;20069;-84
2023/12/29 01:42:06;;;;;;;10.07;2.38;;;9.50;99.90;;;;;;4993584;28;20042;-84
2023/12/29 01:44:32;;;;;;;12.32;2.88;;;9.60;99.90;;;;;;4993668;28;20522;-84
2023/12/29 01:47:02;;;;;;;13.00;2.85;;;9.60;99.90;;;;;;4980016;28;20033;-84
2023/12/29 01:49:29;;;;;;;13.55;3.20;;;9.60;99.90;;;;;;5008381;28;20054;-84
2023/12/29 01:51:57;;;;;;;14.25;3.33;;;9.50;99.90;;;;;;4974337;28;20045;-84
2023/12/29 01:54:25;;;;;;;11.05;2.72;;;9.50;99.90;;;;;;5008606;28;20392;-84
2023/12/29 01:56:55;;;;;;;10.23;2.90;;;9.70;99.90;;;;;;4990366;28;20037;-84
2023/12/29 01:59:21;;;;;;;7.22;2.00;;;9.50;99.90;;;;;;4993115;28;20054;-85
2023/12/29 02:01:47;;;;;;;8.15;1.88;;;9.50;99.90;;;;;;4975103;28;20046;-84
2023/12/29 02:04:13;;;;;;;5.10;1.50;;;9.50;99.90;;;;;;4997450;28;20301;-84
2023/12/29 02:06:39;;;;;;;6.65;1.55;;;9.30;99.90;;;;;;4978337;28;20376;-84
2023/12/29 02:09:05;;;;;;;6.53;1.90;;;9.40;99.90;;;;;;4993837;28;20108;-84
2023/12/29 02:11:31;;;;;;;5.78;1.50;;;9.30;99.90;;;;;;4975293;28;20050;-84
2023/12/29 02:13:59;;;;;;;5.82;1.80;;;9.20;99.90;;;;;;5009975;28;20120;-84
2023/12/29 02:16:33;;;;;;;6.95;1.48;;;9.20;99.90;;;;;;4985274;28;20096;-84
2023/12/29 02:19:01;;;;;;;7.20;1.73;;;9.20;99.90;;;;;;4980769;28;20033;-84
2023/12/29 02:21:27;;;;;;;2.78;1.23;;;9.20;99.90;;;;;;5026062;28;20049;-84
2023/12/29 02:23:52;;;;;;;6.30;1.50;;;9.10;99.90;;;;;;5007186;28;20069;-84
2023/12/29 02:26:22;;;;;;;5.47;1.40;;;8.90;99.90;;;;;;4985148;28;20034;-84
2023/12/29 02:28:56;;;;;;;5.85;1.48;;;8.80;99.90;;;;;;4987227;28;20073;-84
2023/12/29 02:31:24;;;;;;;5.78;1.85;;;8.70;99.90;;;;;;4984229;28;20041;-83
2023/12/29 02:33:52;;;;;;;5.53;1.55;;;8.50;99.90;;;;;;4973061;28;20538;-84
2023/12/29 02:36:18;;;;;;;9.35;1.80;;;8.40;99.90;;;;;;4986562;28;20481;-83
2023/12/29 02:38:44;;;;;;;6.80;1.80;;;8.40;99.90;;;;;;4980262;28;20074;-84
2023/12/29 02:41:13;;;;;;;7.07;2.03;;;8.40;99.90;;;;;;4985131;28;20066;-83
2023/12/29 02:43:39;;;;;;;8.32;1.90;;;8.80;99.90;;;;;;4987641;28;20456;-84
2023/12/29 02:46:04;;;;;;;10.05;2.67;;;8.10;99.90;;;;;;4967779;28;20044;-83
2023/12/29 02:48:30;;;;;;;10.48;2.15;;;8.20;99.90;;;;;;4982018;28;20041;-83
2023/12/29 02:50:56;;;;;;;9.55;2.30;;;8.20;99.90;;;;;;4964715;28;20103;-83
2023/12/29 02:53:21;;;;;;;9.60;2.35;;;8.30;99.90;;;;;;4971041;28;20037;-84
2023/12/29 02:55:47;;;;;;;11.73;2.70;;;8.20;99.90;;;;;;4985982;28;20049;-84
2023/12/29 02:58:13;;;;;;;8.45;2.40;;;8.10;99.90;;;;;;4985532;28;20475;-83
2023/12/29 03:00:39;;;;;;;11.98;2.60;;;8.30;99.90;;;;;;4972323;28;20115;-84
2023/12/29 03:03:05;;;;;;;10.88;2.47;;;8.30;99.90;;;;;;4986299;28;20099;-84
2023/12/29 03:05:30;;;;;;;9.85;2.55;;;8.40;99.90;;;;;;4986286;28;20122;-83
2023/12/29 03:07:57;;;;;;;12.75;2.70;;;8.30;99.90;;;;;;5000070;28;20099;-84
2023/12/29 03:10:23;;;;;;;11.32;2.50;;;8.40;99.90;;;;;;4970012;28;20507;-83
2023/12/29 03:12:49;;;;;;;14.77;3.13;;;8.50;99.90;;;;;;4971682;28;20052;-84
2023/12/29 03:15:15;;;;;;;12.95;3.05;;;8.40;99.90;;;;;;4984248;28;20054;-84
2023/12/29 03:17:40;;;;;;;15.27;3.20;;;8.50;99.90;;;;;;4986261;28;20037;-83
2023/12/29 03:20:07;;;;;;;13.48;3.63;;;8.60;99.90;;;;;;5000640;28;20039;-83
2023/12/29 03:22:33;;;;;;;12.40;2.97;;;8.70;99.90;;;;;;4983537;28;20124;-84
2023/12/29 03:24:59;;;;;;;11.30;3.25;;;8.70;99.90;;;;;;5002419;28;20081;-84
2023/12/29 03:27:25;;;;;;;14.45;3.17;;;8.80;99.90;;;;;;4970256;28;20052;-83
2023/12/29 03:29:51;;;;;;;15.98;3.70;;;9.00;99.90;;;;;;4971975;28;20100;-84
2023/12/29 03:32:17;;;;;;;14.32;2.85;;;9.00;99.90;;;;;;4970428;28;20044;-84
2023/12/29 03:34:43;;;;;;;14.00;3.63;;;9.70;99.90;;;;;;4970616;28;20486;-84
2023/12/29 03:37:09;;;;;;;13.35;2.85;;;9.00;99.90;;;;;;4972736;28;20092;-83
2023/12/29 03:39:35;;;;;;;14.00;3.33;;;9.00;99.90;;;;;;4983635;28;20121;-84
2023/12/29 03:42:01;;;;;;;16.20;3.60;;;9.00;99.90;;;;;;4969681;28;20125;-83
2023/12/29 03:44:27;;;;;;;19.50;3.58;;;9.10;99.90;;;;;;5001682;28;20499;-84
2023/12/29 03:46:53;;;;;;;15.23;3.63;;;9.20;99.90;;;;;;5000397;28;20050;-84
2023/12/29 03:49:19;;;;;;;11.43;3.08;;;9.00;99.90;;;;;;4997633;28;20518;-83
2023/12/29 03:51:46;;;;;;;15.52;3.20;;;9.10;99.90;;;;;;4987741;28;20050;-84
2023/12/29 03:54:12;;;;;;;16.63;3.42;;;9.50;99.90;;;;;;4987967;28;20049;-84
2023/12/29 03:56:37;;;;;;;14.25;3.47;;;9.00;99.90;;;;;;4992476;28;20045;-83
2023/12/29 03:59:03;;;;;;;16.75;3.67;;;9.00;99.90;;;;;;5007626;28;20483;-84
2023/12/29 04:01:33;;;;;;;14.13;3.35;;;9.10;99.90;;;;;;4975963;28;20034;-84
2023/12/29 04:03:58;;;;;;;14.23;3.30;;;9.00;99.90;;;;;;4990645;28;20450;-83
2023/12/29 04:06:24;;;;;;;14.43;3.75;;;9.10;99.90;;;;;;4989160;28;20057;-84
2023/12/29 04:08:50;;;;;;;18.13;3.90;;;9.90;99.90;;;;;;4958889;28;20461;-84
2023/12/29 04:11:15;;;;;;;21.52;4.32;;;9.00;99.90;;;;;;4972468;28;20093;-84
2023/12/29 04:13:41;;;;;;;15.15;3.70;;;9.60;99.90;;;;;;4968430;28;20093;-83
2023/12/29 04:16:07;;;;;;;14.77;3.72;;;9.10;99.90;;;;;;4975413;28;20053;-83
2023/12/29 04:18:33;;;;;;;15.73;4.78;;;9.10;99.90;;;;;;4974703;28;20076;-83
2023/12/29 04:20:58;;;;;;;14.27;3.33;;;9.10;99.90;;;;;;4975962;28;20133;-83
2023/12/29 04:23:24;;;;;;;15.43;3.85;;;9.00;99.90;;;;;;4988551;28;20117;-84
2023/12/29 04:25:50;;;;;;;18.85;3.45;;;9.00;99.90;;;;;;4980446;28;20045;-84
2023/12/29 04:28:15;;;;;;;19.70;4.00;;;9.20;99.90;;;;;;4973465;28;20136;-84
2023/12/29 04:30:41;;;;;;;16.17;3.40;;;9.20;99.90;;;;;;5011306;28;20052;-84
2023/12/29 04:33:07;;;;;;;16.58;4.30;;;9.10;99.90;;;;;;4990255;28;20116;-84
2023/12/29 04:35:32;;;;;;;16.88;4.15;;;9.20;99.90;;;;;;4958055;28;20034;-84
2023/12/29 04:37:58;;;;;;;14.57;3.58;;;9.20;99.90;;;;;;4972079;28;20119;-84
2023/12/29 04:40:24;;;;;;;15.18;4.13;;;9.20;99.90;;;;;;5007637;28;20507;-84
2023/12/29 04:42:49;;;;;;;15.75;3.47;;;9.20;99.90;;;;;;4959918;28;20104;-84
2023/12/29 04:45:15;;;;;;;16.08;3.72;;;9.10;99.90;;;;;;5006224;28;20050;-84
2023/12/29 04:47:41;;;;;;;13.93;3.58;;;9.10;99.90;;;;;;4991487;28;20038;-83
2023/12/29 04:50:07;;;;;;;13.93;3.30;;;9.10;99.90;;;;;;4991342;28;20389;-84
2023/12/29 04:52:32;;;;;;;17.05;4.03;;;9.20;99.90;;;;;;4975700;28;20080;-84
2023/12/29 04:54:58;;;;;;;17.05;3.85;;;9.10;99.90;;;;;;4955954;28;20045;-84
2023/12/29 04:57:24;;;;;;;17.92;3.97;;;9.20;99.90;;;;;;4975443;28;20092;-84
2023/12/29 04:59:49;;;;;;;14.55;3.50;;;9.20;99.90;;;;;;4970090;28;20041;-84
2023/12/29 05:02:15;;;;;;;18.63;4.25;;;9.20;99.90;;;;;;4985429;28;20571;-83
2023/12/29 05:04:41;;;;;;;17.73;4.20;;;9.20;99.90;;;;;;4994884;28;20104;-83
2023/12/29 05:07:09;;;;;;;15.27;3.53;;;9.20;99.90;;;;;;4979024;28;20071;-83
2023/12/29 05:09:35;;;;;;;19.23;4.03;;;9.20;99.90;;;;;;4993737;28;20041;-83
2023/12/29 05:12:01;;;;;;;16.65;3.45;;;9.20;99.90;;;;;;5007182;28;20046;-83
2023/12/29 05:14:27;;;;;;;15.00;3.67;;;9.20;99.90;;;;;;4993846;28;20089;-84
2023/12/29 05:16:52;;;;;;;15.68;4.00;;;10.20;99.90;;;;;;4978014;28;20068;-83
2023/12/29 05:19:18;;;;;;;16.17;3.60;;;9.50;99.90;;;;;;4993929;28;20041;-84
2023/12/29 05:21:44;;;;;;;15.68;3.55;;;9.10;99.90;;;;;;4985657;28;20055;-84
2023/12/29 05:24:10;;;;;;;18.42;4.03;;;9.10;99.90;;;;;;4987469;28;20514;-84
2023/12/29 05:26:35;;;;;;;15.57;3.35;;;9.10;99.90;;;;;;4988269;28;20128;-84
2023/12/29 05:29:02;;;;;;;20.50;4.07;;;9.10;99.90;;;;;;4977325;28;20034;-84
2023/12/29 05:31:28;;;;;;;12.18;3.47;;;9.20;99.90;;;;;;4988201;28;20048;-84
2023/12/29 05:33:55;;;;;;;16.58;3.63;;;9.20;99.90;;;;;;4973582;28;20415;-84
2023/12/29 05:36:20;;;;;;;15.43;3.67;;;9.20;99.90;;;;;;4974994;28;20044;-84
2023/12/29 05:38:47;;;;;;;14.85;3.75;;;9.20;99.90;;;;;;4975282;28;20042;-84
2023/12/29 05:41:16;;;;;;;14.82;3.45;;;9.20;99.90;;;;;;4977811;28;20121;-84
2023/12/29 05:43:42;;;;;;;16.33;3.60;;;9.20;99.90;;;;;;4991906;28;20095;-84
2023/12/29 05:46:12;;;;;;;13.70;3.35;;;9.20;99.90;;;;;;4978639;28;20329;-84
2023/12/29 05:48:41;;;;;;;12.02;3.58;;;9.30;99.90;;;;;;4991902;28;20635;-84
2023/12/29 05:51:13;;;;;;;17.05;3.83;;;9.20;99.90;;;;;;5010087;28;20034;-84
2023/12/29 05:53:42;;;;;;;19.37;4.47;;;9.30;99.90;;;;;;4986442;28;20048;-84
2023/12/29 05:56:09;;;;;;;18.17;3.63;;;9.20;99.90;;;;;;5010566;28;20102;-84
2023/12/29 05:58:34;;;;;;;14.07;3.95;;;9.30;99.90;;;;;;4974031;28;20117;-84
2023/12/29 06:01:01;;;;;;;18.60;3.83;;;9.30;99.90;;;;;;4980809;28;20422;-83
2023/12/29 06:03:27;;;;;;;15.45;3.90;;;9.30;99.90;;;;;;4999594;28;20112;-84
2023/12/29 06:05:54;;;;;;;19.52;4.10;;;9.30;99.90;;;;;;4973589;28;20125;-84
2023/12/29 06:08:19;;;;;;;17.92;3.42;;;9.30;99.90;;;;;;4975764;28;20046;-84
2023/12/29 06:10:45;;;;;;;18.00;3.67;;;9.30;99.90;;;;;;4976202;28;20038;-84
2023/12/29 06:13:11;;;;;;;16.90;3.83;;;9.20;99.90;;;;;;4976138;28;20061;-84
2023/12/29 06:15:36;;;;;;;15.88;3.72;;;9.20;99.90;;;;;;4956108;28;20065;-84
2023/12/29 06:18:02;;;;;;;15.20;3.72;;;9.30;99.90;;;;;;4977368;28;20103;-84
2023/12/29 06:20:28;;;;;;;18.52;3.83;;;9.20;99.90;;;;;;4974468;28;20043;-84
2023/12/29 06:22:55;;;;;;;15.10;3.42;;;9.20;99.90;;;;;;4974082;28;20050;-83
2023/12/29 06:25:21;;;;;;;14.57;3.78;;;9.20;99.90;;;;;;4993804;28;20457;-84
2023/12/29 06:27:48;;;;;;;15.52;3.58;;;9.20;99.90;;;;;;4989330;28;20042;-84
2023/12/29 06:30:14;;;;;;;16.33;3.28;;;9.20;99.90;;;;;;4986484;28;20045;-84
2023/12/29 06:32:40;;;;;;;15.05;3.17;;;9.20;99.90;;;;;;4985094;28;20038;-83
2023/12/29 06:35:06;;;;;;;14.55;3.72;;;9.20;99.90;;;;;;4973337;28;20096;-84
2023/12/29 06:37:32;;;;;;;17.42;3.67;;;9.20;99.90;;;;;;4976801;28;20422;-84
2023/12/29 06:39:59;;;;;;;16.75;3.80;;;9.10;99.90;;;;;;4972025;28;20034;-84
2023/12/29 06:42:25;;;;;;;15.02;3.33;;;9.20;99.90;;;;;;4975915;28;20120;-83
2023/12/29 06:44:50;;;;;;;14.23;3.13;;;9.10;99.90;;;;;;4989522;28;20551;-84
2023/12/29 06:47:16;;;;;;;12.35;3.08;;;9.10;99.90;;;;;;4977540;28;20049;-84
2023/12/29 06:49:42;;;;;;;14.75;3.67;;;9.10;99.90;;;;;;4976227;28;20529;-84
2023/12/29 06:52:07;;;;;;;12.07;3.35;;;9.00;99.90;;;;;;4976930;28;20522;-84
2023/12/29 06:54:36;;;;;;;12.63;3.20;;;8.90;99.90;;;;;;4990810;28;20041;-84
2023/12/29 06:57:02;;;;;;;10.88;2.97;;;9.00;99.90;;;;;;4985746;28;20445;-84
2023/12/29 06:59:27;;;;;;;17.88;3.67;;;8.90;99.90;;;;;;4972300;28;20556;-84
2023/12/29 07:01:53;;;;;;;15.38;3.67;;;8.70;99.90;;;;;;4982017;28;20501;-84
2023/12/29 07:04:19;;;;;;;17.67;3.67;;;8.70;99.90;;;;;;4975350;28;20076;-84
2023/12/29 07:06:45;;;;;;;12.57;2.78;;;8.70;99.90;;;;;;4975259;28;20046;-84
2023/12/29 07:09:10;;;;;;;16.35;3.35;;;8.90;99.90;;;;;;4974607;28;20301;-84
2023/12/29 07:11:36;;;;;;;14.60;3.45;;;8.70;99.90;;;;;;4971813;28;20296;-84
2023/12/29 07:14:03;;;;;;;18.02;3.42;;;8.80;99.90;;;;;;4991004;28;20054;-83
2023/12/29 07:16:29;;;;;;;16.00;3.67;;;8.70;99.90;;;;;;5015162;28;20216;-84
2023/12/29 07:18:54;;;;;;;19.15;4.45;;;8.80;99.90;;;;;;5005846;28;20483;-84
2023/12/29 07:21:21;;;;;;;15.27;3.45;;;8.90;99.90;;;;;;5005982;28;20113;-84
2023/12/29 07:23:46;;;;;;;15.63;3.72;;;8.90;99.90;;;;;;4992308;28;20037;-84
2023/12/29 07:26:12;;;;;;;11.68;3.33;;;8.80;99.90;;;;;;4972883;28;20069;-84
2023/12/29 07:28:38;;;;;;;16.42;3.53;;;8.90;99.90;;;;;;5002638;28;20165;-84
2023/12/29 07:31:03;;;;;;;15.80;3.13;;;8.90;99.90;;;;;;4966419;28;20124;-84
2023/12/29 07:33:30;;;;;;;14.77;3.78;;;9.00;99.90;;;;;;4979339;28;20034;-84
2023/12/29 07:35:56;;;;;;;16.20;4.00;;;8.90;99.90;;;;;;4978448;28;20045;-83
2023/12/29 07:38:22;;;;;;;17.05;3.35;;;8.80;99.90;;;;;;4997350;28;20060;-83
2023/12/29 07:40:47;;;;;;;18.55;3.90;;;8.90;99.90;;;;;;4984304;28;20128;-84
2023/12/29 07:43:13;;;;;;;15.35;4.15;;;8.70;99.90;;;;;;5000560;28;20037;-84
2023/12/29 07:45:39;;;;;;;18.27;3.85;;;8.80;99.90;;;;;;4964324;28;20042;-84
2023/12/29 07:48:06;;;;;;;17.60;4.40;;;8.80;99.90;;;;;;4968981;28;20037;-83
2023/12/29 07:50:31;;;;;;;19.65;4.10;;;8.80;99.90;;;;;;4985629;28;20046;-84
2023/12/29 07:52:57;;;;;;;15.90;3.67;;;8.80;99.90;;;;;;5000170;28;20143;-83
2023/12/29 07:55:23;;;;;;;17.60;3.70;;;8.80;99.90;;;;;;4969365;28;20491;-83
2023/12/29 07:57:49;;;;;;;15.73;3.38;;;8.60;99.90;;;;;;4978636;28;20065;-83
2023/12/29 08:00:15;;;;;;;15.43;3.45;;;8.60;99.90;;;;;;4996726;28;20458;-83
2023/12/29 08:02:41;;;;;;;20.45;3.80;;;8.60;99.90;;;;;;4969286;28;20514;-82
2023/12/29 08:05:10;;;;;;;14.35;3.33;;;8.60;99.90;;;;;;5001611;28;20120;-83
2023/12/29 08:07:37;;;;;;;15.95;3.63;;;8.70;99.90;;;;;;4982391;28;20034;-83
2023/12/29 08:10:05;;;;;;;15.73;4.18;;;8.70;99.90;;;;;;4999657;28;20064;-83
2023/12/29 08:12:33;;;;;;;18.65;4.30;;;8.60;99.90;;;;;;4999784;28;20042;-83
2023/12/29 08:14:59;;;;;;;18.00;4.10;;;9.60;99.90;;;;;;4970282;28;20050;-83
2023/12/29 08:17:25;;;;;;;18.63;4.10;;;8.70;99.90;;;;;;4977322;28;20044;-84
2023/12/29 08:19:50;;;;;;;21.33;4.97;;;8.70;99.90;;;;;;5002159;28;20042;-85
2023/12/29 08:22:16;;;;;;;19.20;4.18;;;8.80;99.90;;;;;;4968756;28;20117;-83
2023/12/29 08:24:43;;;;;;;17.08;3.25;;;8.70;99.90;;;;;;4971566;28;20058;-82
2023/12/29 08:27:10;;;;;;;19.35;3.97;;;8.70;99.90;;;;;;4982396;28;20103;-84
2023/12/29 08:29:36;;;;;;;17.38;4.28;;;8.80;99.90;;;;;;5026623;28;20038;-83
2023/12/29 08:32:02;;;;;;;16.17;3.53;;;8.80;99.90;;;;;;4986603;28;20045;-82
2023/12/29 08:34:28;;;;;;;17.33;3.90;;;8.80;99.90;;;;;;4981476;28;20510;-83
2023/12/29 08:36:54;;;;;;;17.83;3.17;;;9.50;99.90;;;;;;4983546;28;20033;-83
2023/12/29 08:39:19;;;;;;;15.95;3.35;;;8.80;99.90;;;;;;5012680;28;20034;-83
2023/12/29 08:41:47;;;;;;;14.65;3.10;;;8.90;99.90;;;;;;4969436;28;20112;-84
2023/12/29 08:44:12;;;;;;;15.32;3.40;;;9.00;99.90;;;;;;4985982;28;20431;-84
2023/12/29 08:46:38;;;;;;;22.85;3.67;;;8.70;99.90;;;;;;4970605;28;20080;-84
2023/12/29 08:49:04;;;;;;;15.90;3.75;;;8.80;99.90;;;;;;5011806;28;20499;-84
2023/12/29 08:51:29;;;;;;;12.43;3.53;;;8.70;99.90;;;;;;4985171;28;20132;-85
2023/12/29 08:53:55;;;;;;;17.25;3.97;;;8.70;99.90;;;;;;4963038;28;20035;-84
2023/12/29 08:56:21;;;;;;;18.23;4.00;;;9.80;99.90;;;;;;4986345;28;20200;-83
2023/12/29 08:58:47;;;;;;;14.60;3.55;;;8.80;99.90;;;;;;4985491;28;20037;-83
2023/12/29 09:01:12;;;;;;;17.25;3.35;;;8.90;99.90;;;;;;5020022;28;20169;-84
2023/12/29 09:03:38;;;;;;;16.08;3.65;;;8.90;99.90;;;;;;4999642;28;20026;-84
2023/12/29 09:06:04;;;;;;;17.88;3.72;;;8.90;99.90;;;;;;4980226;28;20484;-84
2023/12/29 09:08:30;;;;;;;16.90;4.18;;;8.90;99.90;;;;;;4970387;28;20042;-85
2023/12/29 09:10:56;;;;;;;17.42;4.03;;;8.90;99.90;;;;;;4974236;28;20046;-85
2023/12/29 09:13:25;;;;;;;17.67;4.35;;;9.10;99.90;;;;;;4966815;28;20084;-85
2023/12/29 09:15:50;;;;;;;14.55;3.10;;;9.00;99.90;;;;;;4963003;28;20050;-84
2023/12/29 09:18:16;;;;;;;16.23;3.60;;;8.90;99.90;;;;;;5001944;28;20100;-84
2023/12/29 09:20:42;;;;;;;16.52;3.92;;;8.80;99.90;;;;;;4971147;28;20065;-85
2023/12/29 09:23:08;;;;;;;15.52;3.75;;;8.90;99.90;;;;;;4969303;28;20513;-84
2023/12/29 09:25:33;;;;;;;16.52;4.20;;;8.90;99.90;;;;;;5012788;28;20049;-84
2023/12/29 09:27:59;;;;;;;17.20;4.28;;;9.00;99.90;;;;;;5018165;28;20038;-83
2023/12/29 09:30:25;;;;;;;13.85;3.03;;;8.90;99.90;;;;;;4956579;28;20665;-83
2023/12/29 09:32:50;;;;;;;17.63;3.70;;;10.10;99.90;;;;;;4971232;28;20061;-83
2023/12/29 09:35:17;;;;;;;15.85;3.38;;;9.10;99.90;;;;;;4972526;28;20041;-85
2023/12/29 09:37:43;;;;;;;17.42;4.13;;;9.10;99.90;;;;;;4988846;28;20498;-84
2023/12/29 09:40:11;;;;;;;15.00;3.30;;;9.20;99.90;;;;;;4984906;28;20131;-84
2023/12/29 09:42:38;;;;;;;13.70;3.35;;;9.20;99.90;;;;;;4980559;28;20070;-84
2023/12/29 09:45:09;;;;;;;13.85;3.17;;;9.20;99.90;;;;;;4980730;28;20065;-83
2023/12/29 09:47:42;;;;;;;16.30;3.80;;;9.20;99.90;;;;;;4985543;28;20042;-82
2023/12/29 09:50:11;;;;;;;15.15;3.10;;;9.30;99.90;;;;;;4982420;28;20058;-83
2023/12/29 09:52:39;;;;;;;17.35;3.28;;;9.40;99.90;;;;;;5003903;28;20154;-84
2023/12/29 09:55:09;;;;;;;12.57;3.10;;;9.30;99.90;;;;;;4988698;28;20035;-83
2023/12/29 09:57:35;;;;;;;16.67;3.63;;;9.30;99.90;;;;;;4998598;28;20061;-82
2023/12/29 10:00:02;;;;;;;15.20;3.08;;;9.30;99.90;;;;;;5017031;28;20042;-84
2023/12/29 10:02:29;;;;;;;14.00;3.20;;;9.30;99.90;;;;;;4981615;28;20099;-84
2023/12/29 10:04:55;;;;;;;17.33;3.60;;;9.40;99.90;;;;;;4985590;28;20455;-84
2023/12/29 10:07:28;;;;;;;12.95;3.30;;;9.30;99.90;;;;;;4969040;28;20065;-84
2023/12/29 10:09:58;;;;;;;14.52;3.22;;;9.40;99.90;;;;;;4984125;28;20065;-84
2023/12/29 10:12:24;;;;;;;14.63;2.92;;;9.40;99.90;;;;;;4992667;28;20594;-84
2023/12/29 10:15:02;;;;;;;13.13;3.22;;;9.40;99.90;;;;;;4977724;28;20138;-84
2023/12/29 10:17:48;;;;;;;13.73;3.20;;;9.40;99.90;;;;;;4986237;28;20042;-84
2023/12/29 10:20:28;;;;;;;15.80;3.38;;;9.50;99.90;;;;;;4998351;28;20100;-84
2023/12/29 10:23:09;;;;;;;13.93;3.70;;;9.40;99.90;;;;;;5007272;28;20045;-84
2023/12/29 10:25:36;;;;;;;16.92;3.30;;;9.40;99.90;;;;;;4993951;28;20137;-84
2023/12/29 10:28:02;;;;;;;15.63;3.03;;;9.40;99.90;;;;;;4974576;28;20057;-83
2023/12/29 10:30:28;;;;;;;14.45;3.08;;;9.40;99.90;;;;;;4970464;28;20045;-84
2023/12/29 10:32:54;;;;;;;9.68;2.90;;;9.40;99.90;;;;;;4992947;28;20046;-84
2023/12/29 10:35:21;;;;;;;11.98;2.92;;;9.40;99.90;;;;;;4990826;28;20046;-84
2023/12/29 10:37:47;;;;;;;11.60;2.83;;;9.50;99.90;;;;;;4993452;28;20491;-84
2023/12/29 10:40:19;;;;;;;15.77;3.40;;;9.60;99.90;;;;;;4977271;28;20048;-84
2023/12/29 10:42:55;;;;;;;13.68;3.08;;;9.20;99.90;;;;;;4993283;28;20073;-84
2023/12/29 10:45:24;;;;;;;14.73;3.05;;;9.60;99.90;;;;;;4974220;28;20455;-84
2023/12/29 10:47:51;;;;;;;12.60;2.92;;;9.60;99.90;;;;;;4973769;28;20048;-84
2023/12/29 10:50:16;;;;;;;12.75;3.15;;;9.60;99.90;;;;;;4985744;28;20127;-84
2023/12/29 10:52:42;;;;;;;13.85;2.97;;;9.60;99.90;;;;;;4973694;28;20086;-84
2023/12/29 10:55:11;;;;;;;14.98;2.78;;;9.60;99.90;;;;;;5002496;28;20046;-84
2023/12/29 10:57:38;;;;;;;11.40;2.97;;;9.60;99.90;;;;;;4993077;28;20049;-84
2023/12/29 11:00:07;;;;;;;12.02;2.70;;;9.50;99.90;;;;;;4974522;28;20034;-84
2023/12/29 11:02:34;;;;;;;12.40;2.85;;;9.50;99.90;;;;;;4999330;28;20042;-84
2023/12/29 11:05:07;;;;;;;12.88;3.28;;;9.50;99.90;;;;;;4966729;28;20042;-85
2023/12/29 11:07:41;;;;;;;11.93;3.28;;;9.50;99.90;;;;;;5036718;28;20041;-83
2023/12/29 11:10:08;;;;;;;11.35;2.80;;;9.10;99.90;;;;;;5002657;28;20085;-83
2023/12/29 11:12:38;;;;;;;9.85;2.72;;;9.50;99.90;;;;;;4965886;28;20039;-83
2023/12/29 11:15:08;;;;;;;10.70;2.55;;;9.60;99.90;;;;;;5000065;28;20259;-85
2023/12/29 11:17:37;;;;;;;12.77;2.50;;;9.60;99.90;;;;;;5002709;28;20093;-85
2023/12/29 11:20:04;;;;;;;11.10;2.92;;;9.60;99.90;;;;;;4963278;28;20474;-83
2023/12/29 11:22:31;;;;;;;16.33;3.58;;;9.60;99.90;;;;;;5002540;28;20399;-83
2023/12/29 11:25:00;;;;;;;10.98;2.45;;;9.60;99.90;;;;;;4982306;28;20460;-84
2023/12/29 11:27:29;;;;;;;12.63;2.30;;;9.50;99.90;;;;;;4981114;28;20112;-83
2023/12/29 11:29:59;;;;;;;10.15;2.40;;;8.30;99.90;;;;;;4996812;28;20124;-83
2023/12/29 11:32:40;;;;;;;10.73;2.85;;;10.60;99.90;;;;;;4978120;28;20049;-83
2023/12/29 11:35:29;;;;;;;11.13;2.75;;;9.30;99.90;;;;;;4976073;28;20116;-83
2023/12/29 11:37:58;;;;;;;14.02;2.65;;;9.30;99.90;;;;;;5029066;28;20077;-83
2023/12/29 11:40:30;;;;;;;13.90;2.67;;;9.40;99.90;;;;;;5014411;28;20036;-83
2023/12/29 11:43:03;;;;;;;13.82;2.78;;;9.30;99.90;;;;;;4992980;28;20046;-83
2023/12/29 11:45:34;;;;;;;11.13;2.50;;;9.40;99.90;;;;;;4979780;28;20671;-83
2023/12/29 11:48:02;;;;;;;14.57;3.63;;;9.60;99.90;;;;;;4966474;28;20042;-83
2023/12/29 11:50:32;;;;;;;12.80;2.90;;;9.70;99.90;;;;;;5019377;28;20049;-83
2023/12/29 11:52:59;;;;;;;12.95;2.95;;;9.80;99.90;;;;;;5004151;28;20104;-84
2023/12/29 11:55:30;;;;;;;13.02;3.33;;;9.90;99.90;;;;;;5001258;28;20038;-83
2023/12/29 11:57:56;;;;;;;12.98;2.85;;;10.00;99.90;;;;;;4970329;28;20034;-83
2023/12/29 12:00:42;;;;;;;10.23;2.63;;;10.10;99.90;;;;;;5032577;28;20034;-83
2023/12/29 12:03:26;;;;;;;11.40;2.20;;;10.10;99.90;;;;;;4970837;28;20053;-84
2023/12/29 12:05:54;;;;;;;12.50;2.63;;;10.20;99.90;;;;;;5016098;28;20050;-84
2023/12/29 12:08:35;;;;;;;12.20;2.40;;;10.30;99.90;;;;;;4996324;28;20038;-84
2023/12/29 12:11:29;;;;;;;14.35;3.05;;;10.30;99.90;;;;;;4981771;28;20037;-84
2023/12/29 12:13:55;;;;;;;12.48;2.88;;;10.20;99.90;;;;;;4978290;28;20702;-83
2023/12/29 12:16:53;;;;;;;11.05;2.50;;;10.30;99.90;;;;;;4999210;28;20112;-84
2023/12/29 12:19:20;;;;;;;12.48;2.47;;;10.20;99.90;;;;;;4986708;28;20140;-84
2023/12/29 12:21:50;;;;;;;11.80;2.53;;;10.30;99.90;;;;;;4984017;28;20038;-85
2023/12/29 12:24:19;;;;;;;11.95;3.15;;;10.20;99.90;;;;;;4972050;28;20037;-84
2023/12/29 12:26:44;;;;;;;11.27;2.50;;;10.10;99.90;;;;;;5004157;28;20069;-84
2023/12/29 12:29:13;;;;;;;9.07;2.40;;;10.00;99.90;;;;;;4985906;28;20490;-85
2023/12/29 12:31:55;;;;;;;9.25;2.60;;;9.90;99.90;;;;;;4978666;28;20133;-85
2023/12/29 12:34:21;;;;;;;9.55;2.38;;;9.80;99.90;;;;;;4980589;28;20034;-85
2023/12/29 12:36:52;;;;;;;14.73;3.15;;;10.90;99.90;;;;;;4966687;28;20038;-85
2023/12/29 12:39:17;;;;;;;9.93;2.63;;;9.60;99.90;;;;;;4981563;28;20034;-85
2023/12/29 12:41:44;;;;;;;11.10;2.47;;;9.50;99.90;;;;;;5014699;28;20045;-85
2023/12/29 12:44:14;;;;;;;10.80;2.38;;;9.50;99.90;;;;;;4977981;28;20049;-85
2023/12/29 12:46:57;;;;;;;15.02;2.50;;;9.50;99.90;;;;;;5001335;28;20037;-84
2023/12/29 12:49:23;;;;;;;;;;;9.80;99.90;;;;;;4977044;28;20038;-85